sensor_id;sensor_type;location;lat;lon;timestamp;temperature;humidity
46336;DHT22;31365;48.858;8.530;2022-10-22T00:01:21;14.20;99.90
46336;DHT22;31365;48.858;8.530;2022-10-22T00:03:50;14.00;99.90
46336;DHT22;31365;48.858;8.530;2022-10-22T00:06:19;14.00;99.90
46336;DHT22;31365;48.858;8.530;2022-10-22T00:08:47;13.90;99.90
46336;DHT22;31365;48.858;8.530;2022-10-22T00:11:17;13.90;99.90
46336;DHT22;31365;48.858;8.530;2022-10-22T00:13:46;13.90;99.90
46336;DHT22;31365;48.858;8.530;2022-10-22T00:16:17;13.90;99.90
46336;DHT22;31365;48.858;8.530;2022-10-22T00:18:45;13.90;99.90
46336;DHT22;31365;48.858;8.530;2022-10-22T00:21:14;13.90;99.90
46336;DHT22;31365;48.858;8.530;2022-10-22T00:23:42;13.90;99.90
46336;DHT22;31365;48.858;8.530;2022-10-22T00:26:11;14.00;99.90
46336;DHT22;31365;48.858;8.530;2022-10-22T00:28:40;14.00;99.90
46336;DHT22;31365;48.858;8.530;2022-10-22T00:31:08;14.00;99.90
46336;DHT22;31365;48.858;8.530;2022-10-22T00:33:39;14.00;99.90
46336;DHT22;31365;48.858;8.530;2022-10-22T00:36:07;14.10;99.90
46336;DHT22;31365;48.858;8.530;2022-10-22T00:38:36;14.10;99.90
46336;DHT22;31365;48.858;8.530;2022-10-22T00:41:04;14.10;99.90
46336;DHT22;31365;48.858;8.530;2022-10-22T00:46:20;14.10;99.90
46336;DHT22;31365;48.858;8.530;2022-10-22T00:48:50;14.20;99.90
46336;DHT22;31365;48.858;8.530;2022-10-22T00:51:21;14.20;99.90
46336;DHT22;31365;48.858;8.530;2022-10-22T00:53:59;14.20;99.90
46336;DHT22;31365;48.858;8.530;2022-10-22T00:56:31;14.20;99.90
46336;DHT22;31365;48.858;8.530;2022-10-22T00:59:01;14.30;99.90
46336;DHT22;31365;48.858;8.530;2022-10-22T01:01:31;14.30;99.90
46336;DHT22;31365;48.858;8.530;2022-10-22T01:04:00;14.40;99.90
46336;DHT22;31365;48.858;8.530;2022-10-22T01:06:31;14.30;99.90
46336;DHT22;31365;48.858;8.530;2022-10-22T01:09:09;14.30;99.90
46336;DHT22;31365;48.858;8.530;2022-10-22T01:11:52;14.30;99.90
46336;DHT22;31365;48.858;8.530;2022-10-22T01:14:34;14.20;99.90
46336;DHT22;31365;48.858;8.530;2022-10-22T01:17:16;14.20;99.90
46336;DHT22;31365;48.858;8.530;2022-10-22T01:19:59;14.20;99.90
46336;DHT22;31365;48.858;8.530;2022-10-22T01:22:39;14.20;99.90
46336;DHT22;31365;48.858;8.530;2022-10-22T01:25:16;14.40;99.90
46336;DHT22;31365;48.858;8.530;2022-10-22T01:28:04;14.40;99.90
46336;DHT22;31365;48.858;8.530;2022-10-22T01:30:41;14.50;99.90
46336;DHT22;31365;48.858;8.530;2022-10-22T01:33:14;14.60;99.90
46336;DHT22;31365;48.858;8.530;2022-10-22T01:35:49;14.60;99.90
46336;DHT22;31365;48.858;8.530;2022-10-22T01:38:22;14.60;99.90
46336;DHT22;31365;48.858;8.530;2022-10-22T01:40:52;14.60;99.90
46336;DHT22;31365;48.858;8.530;2022-10-22T01:43:22;14.60;99.90
46336;DHT22;31365;48.858;8.530;2022-10-22T01:45:56;14.50;99.90
46336;DHT22;31365;48.858;8.530;2022-10-22T01:48:34;14.60;99.90
46336;DHT22;31365;48.858;8.530;2022-10-22T01:51:37;14.60;99.90
46336;DHT22;31365;48.858;8.530;2022-10-22T01:54:22;14.60;99.90
46336;DHT22;31365;48.858;8.530;2022-10-22T01:57:06;14.60;99.90
46336;DHT22;31365;48.858;8.530;2022-10-22T01:59:49;14.60;99.90
46336;DHT22;31365;48.858;8.530;2022-10-22T02:02:34;14.50;99.90
46336;DHT22;31365;48.858;8.530;2022-10-22T02:05:13;14.50;99.90
46336;DHT22;31365;48.858;8.530;2022-10-22T02:07:49;14.50;99.90
46336;DHT22;31365;48.858;8.530;2022-10-22T02:10:22;14.50;99.90
46336;DHT22;31365;48.858;8.530;2022-10-22T02:12:53;14.50;99.90
46336;DHT22;31365;48.858;8.530;2022-10-22T02:15:26;14.50;99.90
46336;DHT22;31365;48.858;8.530;2022-10-22T02:17:59;14.50;99.90
46336;DHT22;31365;48.858;8.530;2022-10-22T02:20:32;14.40;99.90
46336;DHT22;31365;48.858;8.530;2022-10-22T02:23:03;14.40;99.90
46336;DHT22;31365;48.858;8.530;2022-10-22T02:25:34;14.40;99.90
46336;DHT22;31365;48.858;8.530;2022-10-22T02:28:12;14.30;99.90
46336;DHT22;31365;48.858;8.530;2022-10-22T02:30:51;14.30;99.90
46336;DHT22;31365;48.858;8.530;2022-10-22T02:33:25;14.30;99.90
46336;DHT22;31365;48.858;8.530;2022-10-22T02:35:56;14.30;99.90
46336;DHT22;31365;48.858;8.530;2022-10-22T02:38:27;14.30;99.90
46336;DHT22;31365;48.858;8.530;2022-10-22T02:40:58;14.40;99.90
46336;DHT22;31365;48.858;8.530;2022-10-22T02:43:28;14.40;99.90
46336;DHT22;31365;48.858;8.530;2022-10-22T02:45:56;14.40;99.90
46336;DHT22;31365;48.858;8.530;2022-10-22T02:48:27;14.40;99.90
46336;DHT22;31365;48.858;8.530;2022-10-22T02:50:55;14.40;99.90
46336;DHT22;31365;48.858;8.530;2022-10-22T02:53:24;14.30;99.90
46336;DHT22;31365;48.858;8.530;2022-10-22T02:55:52;14.30;99.90
46336;DHT22;31365;48.858;8.530;2022-10-22T02:58:21;14.40;99.90
46336;DHT22;31365;48.858;8.530;2022-10-22T03:00:49;14.30;99.90
46336;DHT22;31365;48.858;8.530;2022-10-22T03:03:18;14.30;99.90
46336;DHT22;31365;48.858;8.530;2022-10-22T03:05:49;14.30;99.90
46336;DHT22;31365;48.858;8.530;2022-10-22T03:08:18;14.30;99.90
46336;DHT22;31365;48.858;8.530;2022-10-22T03:10:46;14.30;99.90
46336;DHT22;31365;48.858;8.530;2022-10-22T03:13:15;14.30;99.90
46336;DHT22;31365;48.858;8.530;2022-10-22T03:15:43;14.30;99.90
46336;DHT22;31365;48.858;8.530;2022-10-22T03:18:12;14.30;99.90
46336;DHT22;31365;48.858;8.530;2022-10-22T03:20:40;14.30;99.90
46336;DHT22;31365;48.858;8.530;2022-10-22T03:23:10;14.40;99.90
46336;DHT22;31365;48.858;8.530;2022-10-22T03:25:43;14.40;99.90
46336;DHT22;31365;48.858;8.530;2022-10-22T03:28:16;14.30;99.90
46336;DHT22;31365;48.858;8.530;2022-10-22T03:30:45;14.30;99.90
46336;DHT22;31365;48.858;8.530;2022-10-22T03:33:13;14.30;99.90
46336;DHT22;31365;48.858;8.530;2022-10-22T03:35:43;14.30;99.90
46336;DHT22;31365;48.858;8.530;2022-10-22T03:38:15;14.30;99.90
46336;DHT22;31365;48.858;8.530;2022-10-22T03:40:45;14.30;99.90
46336;DHT22;31365;48.858;8.530;2022-10-22T03:43:14;14.30;99.90
46336;DHT22;31365;48.858;8.530;2022-10-22T03:45:43;14.20;99.90
46336;DHT22;31365;48.858;8.530;2022-10-22T03:48:12;14.20;99.90
46336;DHT22;31365;48.858;8.530;2022-10-22T03:50:40;14.20;99.90
46336;DHT22;31365;48.858;8.530;2022-10-22T03:53:10;14.10;99.90
46336;DHT22;31365;48.858;8.530;2022-10-22T03:55:41;14.20;99.90
46336;DHT22;31365;48.858;8.530;2022-10-22T03:58:09;14.20;99.90
46336;DHT22;31365;48.858;8.530;2022-10-22T04:00:38;14.10;99.90
46336;DHT22;31365;48.858;8.530;2022-10-22T04:03:06;14.20;99.90
46336;DHT22;31365;48.858;8.530;2022-10-22T04:05:34;14.10;99.90
46336;DHT22;31365;48.858;8.530;2022-10-22T04:08:03;14.20;99.90
46336;DHT22;31365;48.858;8.530;2022-10-22T04:10:31;14.20;99.90
46336;DHT22;31365;48.858;8.530;2022-10-22T04:13:01;14.20;99.90
46336;DHT22;31365;48.858;8.530;2022-10-22T04:15:30;14.30;99.90
46336;DHT22;31365;48.858;8.530;2022-10-22T04:17:58;14.30;99.90
46336;DHT22;31365;48.858;8.530;2022-10-22T04:20:27;14.40;99.90
46336;DHT22;31365;48.858;8.530;2022-10-22T04:22:55;14.40;99.90
46336;DHT22;31365;48.858;8.530;2022-10-22T04:25:24;14.40;99.90
46336;DHT22;31365;48.858;8.530;2022-10-22T04:27:52;14.40;99.90
46336;DHT22;31365;48.858;8.530;2022-10-22T04:30:22;14.50;99.90
46336;DHT22;31365;48.858;8.530;2022-10-22T04:32:50;14.50;99.90
46336;DHT22;31365;48.858;8.530;2022-10-22T04:35:19;14.50;99.90
46336;DHT22;31365;48.858;8.530;2022-10-22T04:37:47;14.50;99.90
46336;DHT22;31365;48.858;8.530;2022-10-22T04:40:16;14.50;99.90
46336;DHT22;31365;48.858;8.530;2022-10-22T04:42:45;14.60;99.90
46336;DHT22;31365;48.858;8.530;2022-10-22T04:45:13;14.60;99.90
46336;DHT22;31365;48.858;8.530;2022-10-22T04:47:43;14.60;99.90
46336;DHT22;31365;48.858;8.530;2022-10-22T04:50:12;14.60;99.90
46336;DHT22;31365;48.858;8.530;2022-10-22T04:52:40;14.60;99.90
46336;DHT22;31365;48.858;8.530;2022-10-22T04:55:09;14.70;99.90
46336;DHT22;31365;48.858;8.530;2022-10-22T04:57:37;14.70;99.90
46336;DHT22;31365;48.858;8.530;2022-10-22T05:00:07;14.70;99.90
46336;DHT22;31365;48.858;8.530;2022-10-22T05:02:36;14.70;99.90
46336;DHT22;31365;48.858;8.530;2022-10-22T05:05:06;14.70;99.90
46336;DHT22;31365;48.858;8.530;2022-10-22T05:07:35;14.60;99.90
46336;DHT22;31365;48.858;8.530;2022-10-22T05:10:04;14.60;99.90
46336;DHT22;31365;48.858;8.530;2022-10-22T05:12:34;14.60;99.90
46336;DHT22;31365;48.858;8.530;2022-10-22T05:15:02;14.50;99.90
46336;DHT22;31365;48.858;8.530;2022-10-22T05:17:34;14.50;99.90
46336;DHT22;31365;48.858;8.530;2022-10-22T05:20:06;14.50;99.90
46336;DHT22;31365;48.858;8.530;2022-10-22T05:22:35;14.50;99.90
46336;DHT22;31365;48.858;8.530;2022-10-22T05:25:04;14.50;99.90
46336;DHT22;31365;48.858;8.530;2022-10-22T05:27:33;14.50;99.90
46336;DHT22;31365;48.858;8.530;2022-10-22T05:30:02;14.50;99.90
46336;DHT22;31365;48.858;8.530;2022-10-22T05:32:30;14.50;99.90
46336;DHT22;31365;48.858;8.530;2022-10-22T05:35:01;14.50;99.90
46336;DHT22;31365;48.858;8.530;2022-10-22T05:37:30;14.50;99.90
46336;DHT22;31365;48.858;8.530;2022-10-22T05:39:59;14.50;99.90
46336;DHT22;31365;48.858;8.530;2022-10-22T05:42:48;14.30;99.90
46336;DHT22;31365;48.858;8.530;2022-10-22T05:45:16;14.40;99.90
46336;DHT22;31365;48.858;8.530;2022-10-22T05:47:45;14.40;99.90
46336;DHT22;31365;48.858;8.530;2022-10-22T05:50:13;14.30;99.90
46336;DHT22;31365;48.858;8.530;2022-10-22T05:52:43;14.30;99.90
46336;DHT22;31365;48.858;8.530;2022-10-22T05:55:11;14.30;99.90
46336;DHT22;31365;48.858;8.530;2022-10-22T05:57:40;14.20;99.90
46336;DHT22;31365;48.858;8.530;2022-10-22T06:00:09;14.10;99.90
46336;DHT22;31365;48.858;8.530;2022-10-22T06:02:42;14.10;99.90
46336;DHT22;31365;48.858;8.530;2022-10-22T06:05:10;14.00;99.90
46336;DHT22;31365;48.858;8.530;2022-10-22T06:07:39;14.00;99.90
46336;DHT22;31365;48.858;8.530;2022-10-22T06:10:13;14.00;99.90
46336;DHT22;31365;48.858;8.530;2022-10-22T06:12:45;14.00;99.90
46336;DHT22;31365;48.858;8.530;2022-10-22T06:15:15;14.00;99.90
46336;DHT22;31365;48.858;8.530;2022-10-22T06:17:46;14.00;99.90
46336;DHT22;31365;48.858;8.530;2022-10-22T06:20:15;13.90;99.90
46336;DHT22;31365;48.858;8.530;2022-10-22T06:22:43;13.90;99.90
46336;DHT22;31365;48.858;8.530;2022-10-22T06:25:12;13.80;99.90
46336;DHT22;31365;48.858;8.530;2022-10-22T06:27:41;13.80;99.90
46336;DHT22;31365;48.858;8.530;2022-10-22T06:30:10;13.70;99.90
46336;DHT22;31365;48.858;8.530;2022-10-22T06:32:39;13.80;99.90
46336;DHT22;31365;48.858;8.530;2022-10-22T06:35:08;13.70;99.90
46336;DHT22;31365;48.858;8.530;2022-10-22T06:37:36;13.70;99.90
46336;DHT22;31365;48.858;8.530;2022-10-22T06:40:06;13.80;99.90
46336;DHT22;31365;48.858;8.530;2022-10-22T06:42:36;13.70;99.90
46336;DHT22;31365;48.858;8.530;2022-10-22T06:45:06;13.70;99.90
46336;DHT22;31365;48.858;8.530;2022-10-22T06:47:36;13.70;99.90
46336;DHT22;31365;48.858;8.530;2022-10-22T06:50:05;13.70;99.90
46336;DHT22;31365;48.858;8.530;2022-10-22T06:52:34;13.70;99.90
46336;DHT22;31365;48.858;8.530;2022-10-22T06:55:03;13.70;99.90
46336;DHT22;31365;48.858;8.530;2022-10-22T06:57:32;13.60;99.90
46336;DHT22;31365;48.858;8.530;2022-10-22T07:00:03;13.60;99.90
46336;DHT22;31365;48.858;8.530;2022-10-22T07:02:32;13.60;99.90
46336;DHT22;31365;48.858;8.530;2022-10-22T07:05:00;13.60;99.90
46336;DHT22;31365;48.858;8.530;2022-10-22T07:07:29;13.60;99.90
46336;DHT22;31365;48.858;8.530;2022-10-22T07:09:57;13.60;99.90
46336;DHT22;31365;48.858;8.530;2022-10-22T07:12:25;13.50;99.90
46336;DHT22;31365;48.858;8.530;2022-10-22T07:14:54;13.50;99.90
46336;DHT22;31365;48.858;8.530;2022-10-22T07:17:23;13.50;99.90
46336;DHT22;31365;48.858;8.530;2022-10-22T07:19:52;13.50;99.90
46336;DHT22;31365;48.858;8.530;2022-10-22T07:22:20;13.50;99.90
46336;DHT22;31365;48.858;8.530;2022-10-22T07:24:49;13.60;99.90
46336;DHT22;31365;48.858;8.530;2022-10-22T07:27:17;13.70;99.90
46336;DHT22;31365;48.858;8.530;2022-10-22T07:29:45;13.70;99.90
46336;DHT22;31365;48.858;8.530;2022-10-22T07:32:13;13.80;99.90
46336;DHT22;31365;48.858;8.530;2022-10-22T07:34:47;13.80;99.90
46336;DHT22;31365;48.858;8.530;2022-10-22T07:37:16;13.80;99.90
46336;DHT22;31365;48.858;8.530;2022-10-22T07:39:47;13.90;99.90
46336;DHT22;31365;48.858;8.530;2022-10-22T07:42:15;13.90;99.90
46336;DHT22;31365;48.858;8.530;2022-10-22T07:44:44;13.90;99.90
46336;DHT22;31365;48.858;8.530;2022-10-22T07:47:12;14.00;99.90
46336;DHT22;31365;48.858;8.530;2022-10-22T07:49:41;14.10;99.90
46336;DHT22;31365;48.858;8.530;2022-10-22T07:52:11;14.10;99.90
46336;DHT22;31365;48.858;8.530;2022-10-22T07:54:39;14.30;99.90
46336;DHT22;31365;48.858;8.530;2022-10-22T07:57:08;14.40;99.90
46336;DHT22;31365;48.858;8.530;2022-10-22T07:59:36;14.50;99.90
46336;DHT22;31365;48.858;8.530;2022-10-22T08:02:04;14.60;99.90
46336;DHT22;31365;48.858;8.530;2022-10-22T08:04:32;14.80;99.90
46336;DHT22;31365;48.858;8.530;2022-10-22T08:07:00;14.90;99.90
46336;DHT22;31365;48.858;8.530;2022-10-22T08:09:30;15.00;99.90
46336;DHT22;31365;48.858;8.530;2022-10-22T08:11:59;15.20;99.90
46336;DHT22;31365;48.858;8.530;2022-10-22T08:14:27;15.30;99.90
46336;DHT22;31365;48.858;8.530;2022-10-22T08:16:56;15.50;99.90
46336;DHT22;31365;48.858;8.530;2022-10-22T08:19:24;15.70;99.90
46336;DHT22;31365;48.858;8.530;2022-10-22T08:21:55;16.10;99.90
46336;DHT22;31365;48.858;8.530;2022-10-22T08:24:23;16.20;99.90
46336;DHT22;31365;48.858;8.530;2022-10-22T08:26:54;16.40;99.90
46336;DHT22;31365;48.858;8.530;2022-10-22T08:29:23;16.60;99.90
46336;DHT22;31365;48.858;8.530;2022-10-22T08:31:52;16.70;99.90
46336;DHT22;31365;48.858;8.530;2022-10-22T08:34:21;16.70;99.90
46336;DHT22;31365;48.858;8.530;2022-10-22T08:36:49;16.70;99.90
46336;DHT22;31365;48.858;8.530;2022-10-22T08:39:18;16.70;99.90
46336;DHT22;31365;48.858;8.530;2022-10-22T08:41:55;16.80;99.90
46336;DHT22;31365;48.858;8.530;2022-10-22T08:44:57;16.80;99.90
46336;DHT22;31365;48.858;8.530;2022-10-22T08:47:55;16.90;99.90
46336;DHT22;31365;48.858;8.530;2022-10-22T08:50:40;17.00;99.90
46336;DHT22;31365;48.858;8.530;2022-10-22T08:53:13;17.00;99.90
46336;DHT22;31365;48.858;8.530;2022-10-22T08:55:44;17.10;99.90
46336;DHT22;31365;48.858;8.530;2022-10-22T08:58:19;17.20;99.90
46336;DHT22;31365;48.858;8.530;2022-10-22T09:00:58;17.20;99.90
46336;DHT22;31365;48.858;8.530;2022-10-22T09:03:35;17.30;99.90
46336;DHT22;31365;48.858;8.530;2022-10-22T09:06:13;17.40;99.90
46336;DHT22;31365;48.858;8.530;2022-10-22T09:08:45;17.60;99.90
46336;DHT22;31365;48.858;8.530;2022-10-22T09:11:21;17.60;99.90
46336;DHT22;31365;48.858;8.530;2022-10-22T09:13:55;17.60;99.90
46336;DHT22;31365;48.858;8.530;2022-10-22T09:16:33;17.60;99.90
46336;DHT22;31365;48.858;8.530;2022-10-22T09:19:14;17.70;99.90
46336;DHT22;31365;48.858;8.530;2022-10-22T09:21:55;17.60;99.90
46336;DHT22;31365;48.858;8.530;2022-10-22T09:24:34;17.60;99.90
46336;DHT22;31365;48.858;8.530;2022-10-22T09:27:11;17.50;99.90
46336;DHT22;31365;48.858;8.530;2022-10-22T09:29:45;17.50;99.90
46336;DHT22;31365;48.858;8.530;2022-10-22T09:32:15;17.40;99.90
46336;DHT22;31365;48.858;8.530;2022-10-22T09:34:45;17.40;99.90
46336;DHT22;31365;48.858;8.530;2022-10-22T09:37:16;17.40;99.90
46336;DHT22;31365;48.858;8.530;2022-10-22T09:39:50;17.40;99.90
46336;DHT22;31365;48.858;8.530;2022-10-22T09:42:20;17.40;99.90
46336;DHT22;31365;48.858;8.530;2022-10-22T09:44:52;17.40;99.90
46336;DHT22;31365;48.858;8.530;2022-10-22T09:47:31;17.40;99.90
46336;DHT22;31365;48.858;8.530;2022-10-22T09:50:26;17.40;99.90
46336;DHT22;31365;48.858;8.530;2022-10-22T09:53:00;17.50;99.90
46336;DHT22;31365;48.858;8.530;2022-10-22T09:55:33;17.60;99.90
46336;DHT22;31365;48.858;8.530;2022-10-22T09:58:01;17.70;99.90
46336;DHT22;31365;48.858;8.530;2022-10-22T10:00:30;17.80;99.90
46336;DHT22;31365;48.858;8.530;2022-10-22T10:02:59;18.00;99.90
46336;DHT22;31365;48.858;8.530;2022-10-22T10:05:31;18.30;99.90
46336;DHT22;31365;48.858;8.530;2022-10-22T10:08:07;18.50;99.90
46336;DHT22;31365;48.858;8.530;2022-10-22T10:10:45;18.80;99.90
46336;DHT22;31365;48.858;8.530;2022-10-22T10:13:33;19.20;99.90
46336;DHT22;31365;48.858;8.530;2022-10-22T10:16:29;19.60;99.90
46336;DHT22;31365;48.858;8.530;2022-10-22T10:19:35;20.10;99.90
46336;DHT22;31365;48.858;8.530;2022-10-22T10:22:23;20.50;99.90
46336;DHT22;31365;48.858;8.530;2022-10-22T10:25:19;20.80;99.90
46336;DHT22;31365;48.858;8.530;2022-10-22T10:28:08;21.20;99.90
46336;DHT22;31365;48.858;8.530;2022-10-22T10:30:52;21.40;99.90
46336;DHT22;31365;48.858;8.530;2022-10-22T10:33:33;21.60;99.90
46336;DHT22;31365;48.858;8.530;2022-10-22T10:36:17;21.70;99.90
46336;DHT22;31365;48.858;8.530;2022-10-22T10:38:57;22.10;99.90
46336;DHT22;31365;48.858;8.530;2022-10-22T10:41:38;22.20;99.90
46336;DHT22;31365;48.858;8.530;2022-10-22T10:44:37;22.50;99.90
46336;DHT22;31365;48.858;8.530;2022-10-22T10:47:25;23.00;99.90
46336;DHT22;31365;48.858;8.530;2022-10-22T10:50:17;23.40;99.90
46336;DHT22;31365;48.858;8.530;2022-10-22T10:52:58;24.00;99.90
46336;DHT22;31365;48.858;8.530;2022-10-22T10:55:38;24.40;99.90
46336;DHT22;31365;48.858;8.530;2022-10-22T10:58:22;24.80;99.90
46336;DHT22;31365;48.858;8.530;2022-10-22T11:01:02;24.80;99.90
46336;DHT22;31365;48.858;8.530;2022-10-22T11:03:51;25.20;99.90
46336;DHT22;31365;48.858;8.530;2022-10-22T11:06:44;25.20;99.90
46336;DHT22;31365;48.858;8.530;2022-10-22T11:09:21;25.30;99.90
46336;DHT22;31365;48.858;8.530;2022-10-22T11:11:55;25.60;99.90
46336;DHT22;31365;48.858;8.530;2022-10-22T11:14:31;25.70;99.90
46336;DHT22;31365;48.858;8.530;2022-10-22T11:17:10;25.90;99.90
46336;DHT22;31365;48.858;8.530;2022-10-22T11:19:45;25.70;99.90
46336;DHT22;31365;48.858;8.530;2022-10-22T11:22:30;25.60;99.90
46336;DHT22;31365;48.858;8.530;2022-10-22T11:25:12;26.00;99.90
46336;DHT22;31365;48.858;8.530;2022-10-22T11:27:48;26.30;99.90
46336;DHT22;31365;48.858;8.530;2022-10-22T11:30:29;26.90;99.90
46336;DHT22;31365;48.858;8.530;2022-10-22T11:33:04;27.20;99.90
46336;DHT22;31365;48.858;8.530;2022-10-22T11:35:39;27.60;99.90
46336;DHT22;31365;48.858;8.530;2022-10-22T11:38:15;28.30;99.90
46336;DHT22;31365;48.858;8.530;2022-10-22T11:40:47;28.00;99.90
46336;DHT22;31365;48.858;8.530;2022-10-22T11:43:28;28.00;99.90
46336;DHT22;31365;48.858;8.530;2022-10-22T11:46:08;27.50;99.90
46336;DHT22;31365;48.858;8.530;2022-10-22T11:49:02;28.20;99.90
46336;DHT22;31365;48.858;8.530;2022-10-22T11:51:43;29.10;99.90
46336;DHT22;31365;48.858;8.530;2022-10-22T11:54:29;29.20;99.90
46336;DHT22;31365;48.858;8.530;2022-10-22T11:57:20;29.50;99.40
46336;DHT22;31365;48.858;8.530;2022-10-22T11:59:56;30.10;98.30
46336;DHT22;31365;48.858;8.530;2022-10-22T12:02:36;30.00;96.50
46336;DHT22;31365;48.858;8.530;2022-10-22T12:05:41;30.20;96.90
46336;DHT22;31365;48.858;8.530;2022-10-22T12:08:22;30.50;95.80
46336;DHT22;31365;48.858;8.530;2022-10-22T12:11:05;30.90;95.40
46336;DHT22;31365;48.858;8.530;2022-10-22T12:14:06;31.40;93.70
46336;DHT22;31365;48.858;8.530;2022-10-22T12:16:44;31.90;92.70
46336;DHT22;31365;48.858;8.530;2022-10-22T12:19:27;32.00;91.50
46336;DHT22;31365;48.858;8.530;2022-10-22T12:21:59;31.90;90.80
46336;DHT22;31365;48.858;8.530;2022-10-22T12:24:41;32.10;90.40
46336;DHT22;31365;48.858;8.530;2022-10-22T12:27:22;32.60;90.00
46336;DHT22;31365;48.858;8.530;2022-10-22T12:29:54;32.90;90.10
46336;DHT22;31365;48.858;8.530;2022-10-22T12:32:32;33.70;87.40
46336;DHT22;31365;48.858;8.530;2022-10-22T12:35:04;33.90;83.00
46336;DHT22;31365;48.858;8.530;2022-10-22T12:37:35;33.80;79.00
46336;DHT22;31365;48.858;8.530;2022-10-22T12:40:16;33.80;78.60
46336;DHT22;31365;48.858;8.530;2022-10-22T12:42:49;33.60;74.90
46336;DHT22;31365;48.858;8.530;2022-10-22T12:45:21;33.50;75.40
46336;DHT22;31365;48.858;8.530;2022-10-22T12:47:56;33.80;76.30
46336;DHT22;31365;48.858;8.530;2022-10-22T12:50:30;34.30;75.30
46336;DHT22;31365;48.858;8.530;2022-10-22T12:53:04;33.80;74.90
46336;DHT22;31365;48.858;8.530;2022-10-22T12:55:33;33.40;74.70
46336;DHT22;31365;48.858;8.530;2022-10-22T12:58:05;32.60;75.80
46336;DHT22;31365;48.858;8.530;2022-10-22T13:00:34;32.30;77.20
46336;DHT22;31365;48.858;8.530;2022-10-22T13:03:05;32.70;77.30
46336;DHT22;31365;48.858;8.530;2022-10-22T13:05:34;33.30;75.90
46336;DHT22;31365;48.858;8.530;2022-10-22T13:08:08;33.50;74.60
46336;DHT22;31365;48.858;8.530;2022-10-22T13:10:39;33.70;74.50
46336;DHT22;31365;48.858;8.530;2022-10-22T13:13:40;33.70;73.20
46336;DHT22;31365;48.858;8.530;2022-10-22T13:16:13;33.20;73.70
46336;DHT22;31365;48.858;8.530;2022-10-22T13:18:45;33.20;73.90
46336;DHT22;31365;48.858;8.530;2022-10-22T13:21:26;33.30;73.70
46336;DHT22;31365;48.858;8.530;2022-10-22T13:23:58;33.90;72.30
46336;DHT22;31365;48.858;8.530;2022-10-22T13:26:33;34.10;71.60
46336;DHT22;31365;48.858;8.530;2022-10-22T13:29:10;33.30;70.70
46336;DHT22;31365;48.858;8.530;2022-10-22T13:31:45;33.30;71.90
46336;DHT22;31365;48.858;8.530;2022-10-22T13:34:16;33.80;71.70
46336;DHT22;31365;48.858;8.530;2022-10-22T13:36:48;34.20;70.90
46336;DHT22;31365;48.858;8.530;2022-10-22T13:39:18;34.50;70.10
46336;DHT22;31365;48.858;8.530;2022-10-22T13:41:50;34.10;68.90
46336;DHT22;31365;48.858;8.530;2022-10-22T13:44:20;34.90;69.00
46336;DHT22;31365;48.858;8.530;2022-10-22T13:46:48;35.40;66.80
46336;DHT22;31365;48.858;8.530;2022-10-22T13:49:19;35.40;66.90
46336;DHT22;31365;48.858;8.530;2022-10-22T13:51:49;35.50;66.50
46336;DHT22;31365;48.858;8.530;2022-10-22T13:54:20;35.10;65.50
46336;DHT22;31365;48.858;8.530;2022-10-22T13:56:50;35.10;65.50
46336;DHT22;31365;48.858;8.530;2022-10-22T13:59:21;34.40;66.40
46336;DHT22;31365;48.858;8.530;2022-10-22T14:01:50;34.00;66.30
46336;DHT22;31365;48.858;8.530;2022-10-22T14:04:19;33.10;66.70
46336;DHT22;31365;48.858;8.530;2022-10-22T14:06:48;32.90;68.00
46336;DHT22;31365;48.858;8.530;2022-10-22T14:09:16;32.60;68.50
46336;DHT22;31365;48.858;8.530;2022-10-22T14:11:45;32.50;68.20
46336;DHT22;31365;48.858;8.530;2022-10-22T14:14:14;32.10;68.80
46336;DHT22;31365;48.858;8.530;2022-10-22T14:16:44;32.20;70.00
46336;DHT22;31365;48.858;8.530;2022-10-22T14:19:15;32.00;69.10
46336;DHT22;31365;48.858;8.530;2022-10-22T14:21:45;31.60;70.40
46336;DHT22;31365;48.858;8.530;2022-10-22T14:24:15;30.80;72.00
46336;DHT22;31365;48.858;8.530;2022-10-22T14:26:43;29.50;72.80
46336;DHT22;31365;48.858;8.530;2022-10-22T14:29:11;28.00;75.90
46336;DHT22;31365;48.858;8.530;2022-10-22T14:31:41;27.00;78.70
46336;DHT22;31365;48.858;8.530;2022-10-22T14:34:12;25.90;80.80
46336;DHT22;31365;48.858;8.530;2022-10-22T14:36:42;25.20;82.20
46336;DHT22;31365;48.858;8.530;2022-10-22T14:39:11;24.70;84.00
46336;DHT22;31365;48.858;8.530;2022-10-22T14:41:40;24.30;86.00
46336;DHT22;31365;48.858;8.530;2022-10-22T14:44:11;23.90;87.50
46336;DHT22;31365;48.858;8.530;2022-10-22T14:46:40;23.60;89.20
46336;DHT22;31365;48.858;8.530;2022-10-22T14:49:12;23.30;90.10
46336;DHT22;31365;48.858;8.530;2022-10-22T14:51:40;23.10;90.90
46336;DHT22;31365;48.858;8.530;2022-10-22T14:54:09;22.90;91.50
46336;DHT22;31365;48.858;8.530;2022-10-22T14:56:38;22.70;91.80
46336;DHT22;31365;48.858;8.530;2022-10-22T14:59:06;22.60;92.20
46336;DHT22;31365;48.858;8.530;2022-10-22T15:01:34;22.40;92.30
46336;DHT22;31365;48.858;8.530;2022-10-22T15:04:04;22.10;92.60
46336;DHT22;31365;48.858;8.530;2022-10-22T15:06:34;22.00;93.00
46336;DHT22;31365;48.858;8.530;2022-10-22T15:09:02;21.80;93.10
46336;DHT22;31365;48.858;8.530;2022-10-22T15:11:31;21.70;93.30
46336;DHT22;31365;48.858;8.530;2022-10-22T15:13:59;21.50;93.40
46336;DHT22;31365;48.858;8.530;2022-10-22T15:16:27;21.40;94.00
46336;DHT22;31365;48.858;8.530;2022-10-22T15:18:56;21.30;94.80
46336;DHT22;31365;48.858;8.530;2022-10-22T15:21:25;21.10;95.20
46336;DHT22;31365;48.858;8.530;2022-10-22T15:23:55;21.20;94.90
46336;DHT22;31365;48.858;8.530;2022-10-22T15:26:24;21.10;95.50
46336;DHT22;31365;48.858;8.530;2022-10-22T15:28:52;21.00;95.90
46336;DHT22;31365;48.858;8.530;2022-10-22T15:31:40;21.00;96.30
46336;DHT22;31365;48.858;8.530;2022-10-22T15:34:11;20.90;97.40
46336;DHT22;31365;48.858;8.530;2022-10-22T15:36:40;20.70;98.50
46336;DHT22;31365;48.858;8.530;2022-10-22T15:39:09;20.60;99.50
46336;DHT22;31365;48.858;8.530;2022-10-22T15:41:38;20.30;99.90
46336;DHT22;31365;48.858;8.530;2022-10-22T15:44:06;20.10;99.90
46336;DHT22;31365;48.858;8.530;2022-10-22T15:46:41;19.80;99.90
46336;DHT22;31365;48.858;8.530;2022-10-22T15:49:10;19.60;99.90
46336;DHT22;31365;48.858;8.530;2022-10-22T15:51:39;19.40;99.90
46336;DHT22;31365;48.858;8.530;2022-10-22T15:54:13;19.20;99.90
46336;DHT22;31365;48.858;8.530;2022-10-22T15:56:43;19.10;99.90
46336;DHT22;31365;48.858;8.530;2022-10-22T15:59:14;18.90;99.90
46336;DHT22;31365;48.858;8.530;2022-10-22T16:01:43;18.70;99.90
46336;DHT22;31365;48.858;8.530;2022-10-22T16:04:13;18.70;99.90
46336;DHT22;31365;48.858;8.530;2022-10-22T16:06:43;18.50;99.90
46336;DHT22;31365;48.858;8.530;2022-10-22T16:09:16;18.20;99.90